Fort Caswell, North Carolina
Current Conditions -  °F | °C
As of 4:35 AM on Monday 24 Nov 2014 (Local Time) from KSUT Reporting Station
Overcast Overcast  
Wind Chill: 64°   Ceiling: 1300
Heat Index: 64°   Visibility: 7mi
Dew Point: 62°   Wind: 6mph
Humidity: 94%   Direction: 220°SW
Pressure: 29.84"   Gusts: NA
Location:  33.9216°N, 78.1244°W
Report Text: KSUT 240935Z AUTO 22005KT 7SM BKN013 BKN031 OVC055 18/17 A2984 RMK AO2 T01780168
Loading
Personal Weather Stations






























Interactive Weather Map New forecast layout! Learn more

10-Day Weather Forecast

Advertisements
Track Severe Weather on mobile